createdAt,value
2019-05-20T00:01:41.097Z,50.80
2019-05-20T00:04:15.689Z,51.50
2019-05-20T00:06:50.190Z,50.80
2019-05-20T00:09:24.518Z,50.70
2019-05-20T00:11:58.869Z,50.80
2019-05-20T00:14:34.338Z,50.90
2019-05-20T00:17:08.711Z,50.60
2019-05-20T00:19:43.350Z,50.20
2019-05-20T00:22:17.789Z,50.80
2019-05-20T00:24:52.108Z,51.30
2019-05-20T00:27:26.440Z,52.00
2019-05-20T00:30:00.683Z,51.60
2019-05-20T00:32:41.132Z,52.20
2019-05-20T00:35:11.998Z,51.50
2019-05-20T00:37:46.372Z,52.50
2019-05-20T00:40:20.770Z,52.00
2019-05-20T00:42:55.139Z,50.60
2019-05-20T00:45:29.514Z,49.50
2019-05-20T00:48:03.708Z,48.50
2019-05-20T00:50:38.057Z,47.00
2019-05-20T00:53:12.346Z,46.50
2019-05-20T00:55:46.599Z,46.30
2019-05-20T00:58:21.094Z,45.60
2019-05-20T01:00:55.490Z,45.50
2019-05-20T01:03:31.699Z,45.20
2019-05-20T01:06:06.067Z,44.90
2019-05-20T01:08:40.435Z,44.70
2019-05-20T01:11:14.906Z,44.70
2019-05-20T01:13:49.436Z,44.60
2019-05-20T01:16:31.020Z,44.90
2019-05-20T01:19:06.459Z,45.00
2019-05-20T01:21:41.303Z,45.00
2019-05-20T01:24:15.739Z,44.90
2019-05-20T01:26:50.093Z,44.50
2019-05-20T01:29:24.470Z,44.60
2019-05-20T01:31:59.929Z,44.20
2019-05-20T01:34:34.358Z,43.60
2019-05-20T01:37:20.550Z,43.60
2019-05-20T01:39:54.872Z,43.30
2019-05-20T01:42:29.327Z,43.20
2019-05-20T01:45:03.649Z,42.80
2019-05-20T01:47:38.004Z,42.70
2019-05-20T01:50:12.417Z,42.20
2019-05-20T01:52:46.852Z,41.80
2019-05-20T01:55:21.210Z,41.70
2019-05-20T01:57:55.875Z,41.30
2019-05-20T02:00:30.393Z,41.10
2019-05-20T02:03:04.628Z,40.90
2019-05-20T02:05:38.992Z,40.70
2019-05-20T02:08:13.282Z,40.70
2019-05-20T02:10:49.071Z,40.70
2019-05-20T02:14:00.560Z,40.60
2019-05-20T02:16:34.979Z,40.30
2019-05-20T02:19:10.980Z,39.50
2019-05-20T02:21:45.214Z,38.80
2019-05-20T02:24:19.640Z,38.40
2019-05-20T02:26:53.984Z,38.00
2019-05-20T02:29:28.344Z,37.20
2019-05-20T02:32:02.833Z,37.00
2019-05-20T02:34:37.272Z,36.50
2019-05-20T02:37:11.673Z,35.80
2019-05-20T02:39:46.103Z,35.40
2019-05-20T02:42:20.525Z,35.50
2019-05-20T02:44:55.557Z,35.10
2019-05-20T02:47:30.016Z,34.20
2019-05-20T02:50:04.870Z,33.90
2019-05-20T02:52:39.294Z,33.40
2019-05-20T02:55:14.470Z,33.40
2019-05-20T02:57:48.913Z,32.90
2019-05-20T03:00:24.608Z,32.40
2019-05-20T03:02:58.896Z,31.80
2019-05-20T03:05:33.460Z,31.10
2019-05-20T03:08:07.957Z,30.50
2019-05-20T03:10:42.348Z,29.50
2019-05-20T03:13:16.676Z,28.70
2019-05-20T03:15:51.119Z,28.70
2019-05-20T03:18:26.965Z,28.40
2019-05-20T03:21:02.565Z,28.40
2019-05-20T03:23:36.947Z,27.60
2019-05-20T03:26:11.258Z,26.50
2019-05-20T03:28:45.595Z,27.10
2019-05-20T03:31:20.379Z,26.70
2019-05-20T03:33:54.873Z,25.90
2019-05-20T03:36:29.355Z,25.10
2019-05-20T03:39:04.689Z,25.40
2019-05-20T03:41:48.883Z,25.50
2019-05-20T03:44:23.470Z,25.40
2019-05-20T03:46:58.026Z,25.60
2019-05-20T03:49:32.370Z,25.60
2019-05-20T03:52:06.956Z,25.00
2019-05-20T03:54:41.407Z,24.70
2019-05-20T03:57:15.736Z,24.40
2019-05-20T03:59:50.051Z,24.30
2019-05-20T04:02:24.438Z,24.00
2019-05-20T04:05:03.633Z,24.00
2019-05-20T04:07:38.344Z,24.00
2019-05-20T04:10:12.890Z,23.50
2019-05-20T04:12:47.286Z,23.30
2019-05-20T04:15:21.684Z,22.50
2019-05-20T04:17:55.859Z,22.80
2019-05-20T04:20:30.249Z,22.70
2019-05-20T04:23:05.157Z,22.70
2019-05-20T04:25:43.378Z,22.90
2019-05-20T04:28:18.118Z,22.20
2019-05-20T04:30:52.553Z,22.40
2019-05-20T04:33:28.025Z,22.10
2019-05-20T04:36:02.966Z,22.20
2019-05-20T04:38:37.623Z,22.10
2019-05-20T04:41:13.611Z,22.20
2019-05-20T04:43:49.377Z,21.70
2019-05-20T04:46:24.034Z,21.90
2019-05-20T04:48:58.873Z,21.00
2019-05-20T04:51:33.691Z,21.60
2019-05-20T04:54:07.985Z,21.30
2019-05-20T04:56:43.340Z,21.70
2019-05-20T05:01:58.801Z,22.80
2019-05-20T05:04:34.060Z,24.00
2019-05-20T05:07:10.076Z,25.80
2019-05-20T05:09:44.856Z,26.50
2019-05-20T05:12:19.666Z,27.50
2019-05-20T05:14:54.770Z,29.00
2019-05-20T05:17:30.416Z,30.00
2019-05-20T05:20:04.985Z,30.40
2019-05-20T05:22:39.949Z,30.30
2019-05-20T05:25:14.501Z,29.80
2019-05-20T05:27:49.234Z,29.60
2019-05-20T05:30:24.081Z,30.20
2019-05-20T05:32:58.439Z,30.50
2019-05-20T05:35:32.916Z,31.20
2019-05-20T05:38:08.154Z,31.50
2019-05-20T05:40:43.439Z,31.20
2019-05-20T05:43:17.928Z,31.70
2019-05-20T05:45:53.946Z,29.60
2019-05-20T05:48:28.761Z,29.30
2019-05-20T05:51:03.711Z,28.50
2019-05-20T05:53:38.751Z,27.80
2019-05-20T05:56:14.973Z,28.50
2019-05-20T05:58:49.868Z,27.30
2019-05-20T06:01:24.765Z,27.10
2019-05-20T06:03:59.703Z,28.00
2019-05-20T06:06:34.647Z,27.50
2019-05-20T06:09:10.309Z,27.10
2019-05-20T06:11:45.229Z,26.70
2019-05-20T06:14:21.197Z,26.60
2019-05-20T06:16:59.723Z,27.40
2019-05-20T06:19:35.619Z,28.40
2019-05-20T06:22:14.488Z,29.00
2019-05-20T06:24:47.825Z,26.00
2019-05-20T06:27:22.869Z,27.60
2019-05-20T06:29:57.582Z,27.70
2019-05-20T06:32:31.919Z,26.30
2019-05-20T06:35:07.704Z,28.20
2019-05-20T06:37:44.255Z,28.50
2019-05-20T06:40:18.836Z,28.50
2019-05-20T06:42:53.538Z,28.50
2019-05-20T06:45:28.827Z,28.30
2019-05-20T06:48:05.463Z,28.00
2019-05-20T06:50:39.757Z,28.10
2019-05-20T06:53:15.183Z,28.20
2019-05-20T06:55:51.193Z,28.30
2019-05-20T06:58:27.503Z,28.90
2019-05-20T07:01:02.559Z,28.40
2019-05-20T07:03:37.634Z,27.80
2019-05-20T07:06:12.586Z,28.40
2019-05-20T07:08:48.365Z,29.00
2019-05-20T07:11:23.688Z,28.50
2019-05-20T07:13:58.169Z,28.50
2019-05-20T07:16:33.136Z,28.70
2019-05-20T07:19:08.610Z,27.60
2019-05-20T07:21:42.928Z,24.70
2019-05-20T07:24:17.635Z,25.20
2019-05-20T07:26:52.657Z,25.80
2019-05-20T07:29:27.583Z,27.70
2019-05-20T07:32:02.722Z,27.00
2019-05-20T07:34:37.666Z,27.10
2019-05-20T07:37:12.349Z,27.80
2019-05-20T07:39:47.001Z,26.20
2019-05-20T07:42:22.163Z,26.60
2019-05-20T07:44:57.034Z,27.80
2019-05-20T07:47:31.619Z,27.50
2019-05-20T07:50:07.550Z,26.70
2019-05-20T07:52:42.403Z,26.60
2019-05-20T07:55:16.790Z,26.20
2019-05-20T07:57:53.492Z,27.00
2019-05-20T08:00:28.523Z,27.00
2019-05-20T08:03:05.900Z,26.60
2019-05-20T08:05:40.394Z,26.60
2019-05-20T08:08:14.772Z,27.30
2019-05-20T08:10:49.501Z,26.60
2019-05-20T08:13:24.053Z,27.20
2019-05-20T08:15:59.036Z,27.60
2019-05-20T08:18:34.390Z,26.70
2019-05-20T08:21:12.039Z,26.50
2019-05-20T08:23:50.058Z,27.70
2019-05-20T08:26:22.670Z,26.80
2019-05-20T08:28:57.248Z,27.00
2019-05-20T08:31:32.215Z,26.50
2019-05-20T08:34:06.786Z,26.50
2019-05-20T08:36:41.307Z,27.10
2019-05-20T08:39:15.865Z,26.70
2019-05-20T08:41:50.608Z,26.20
2019-05-20T08:44:38.304Z,26.20
2019-05-20T08:47:13.078Z,26.90
2019-05-20T08:49:48.220Z,26.80
2019-05-20T08:52:28.882Z,26.90
2019-05-20T08:55:03.755Z,26.40
2019-05-20T08:57:39.353Z,27.10
2019-05-20T09:00:22.719Z,26.60
2019-05-20T09:02:52.768Z,26.80
2019-05-20T09:05:28.760Z,27.10
2019-05-20T09:08:04.140Z,26.70
2019-05-20T09:10:39.690Z,25.50
2019-05-20T09:13:15.204Z,26.40
2019-05-20T09:15:49.683Z,26.60
2019-05-20T09:18:24.169Z,26.30
2019-05-20T09:20:58.928Z,26.40
2019-05-20T09:23:34.620Z,25.60
2019-05-20T09:26:09.094Z,25.60
2019-05-20T09:28:44.084Z,26.30
2019-05-20T09:31:19.262Z,26.10
2019-05-20T09:33:54.640Z,25.80
2019-05-20T09:36:31.691Z,25.30
2019-05-20T09:39:06.924Z,26.30
2019-05-20T09:41:41.326Z,26.40
2019-05-20T09:44:15.925Z,26.30
2019-05-20T09:46:50.501Z,26.10
2019-05-20T09:49:24.933Z,25.70
2019-05-20T09:51:59.384Z,26.70
2019-05-20T09:54:34.823Z,26.80
2019-05-20T09:57:10.275Z,26.70
2019-05-20T09:59:45.212Z,26.00
2019-05-20T10:02:20.135Z,27.00
2019-05-20T10:04:54.767Z,26.70
2019-05-20T10:07:48.083Z,26.60
2019-05-20T10:10:22.598Z,26.70
2019-05-20T10:12:58.518Z,26.60
2019-05-20T10:15:33.227Z,26.00
2019-05-20T10:18:08.929Z,26.30
2019-05-20T10:20:54.980Z,25.80
2019-05-20T10:23:29.788Z,25.70
2019-05-20T10:26:04.372Z,25.70
2019-05-20T10:28:42.222Z,25.80
2019-05-20T10:31:15.835Z,25.70
2019-05-20T10:33:50.145Z,25.60
2019-05-20T10:36:24.722Z,26.00
2019-05-20T10:39:00.061Z,26.30
2019-05-20T10:41:35.981Z,25.70
2019-05-20T10:44:10.700Z,26.20
2019-05-20T10:47:08.013Z,26.50
2019-05-20T10:49:43.032Z,26.40
2019-05-20T10:52:17.888Z,26.00
2019-05-20T10:54:52.675Z,26.50
2019-05-20T10:57:28.271Z,26.40
2019-05-20T11:00:03.494Z,26.40
2019-05-20T11:02:39.003Z,26.40
2019-05-20T11:05:14.451Z,26.70
2019-05-20T11:07:49.818Z,26.70
2019-05-20T11:10:44.097Z,26.90
2019-05-20T11:13:20.979Z,26.30
2019-05-20T11:15:56.351Z,26.90
2019-05-20T11:18:49.637Z,26.60
2019-05-20T11:21:25.018Z,26.50
2019-05-20T11:23:59.970Z,26.20
2019-05-20T11:26:47.119Z,26.50
2019-05-20T11:29:21.602Z,26.80
2019-05-20T11:31:56.189Z,26.60
2019-05-20T11:34:30.957Z,26.60
2019-05-20T11:37:05.458Z,27.00
2019-05-20T11:39:40.209Z,26.60
2019-05-20T11:42:15.309Z,26.90
2019-05-20T11:44:50.091Z,26.80
2019-05-20T11:47:25.053Z,27.40
2019-05-20T11:50:00.533Z,26.40
2019-05-20T11:52:35.124Z,26.50
2019-05-20T11:55:10.624Z,27.00
2019-05-20T11:57:45.126Z,27.30
2019-05-20T12:00:20.194Z,27.40
2019-05-20T12:02:54.926Z,27.40
2019-05-20T12:05:29.695Z,27.70
2019-05-20T12:08:04.172Z,28.00
2019-05-20T12:10:39.081Z,27.60
2019-05-20T12:13:14.993Z,27.80
2019-05-20T12:15:49.994Z,27.90
2019-05-20T12:18:26.325Z,28.50
2019-05-20T12:21:00.900Z,28.10
2019-05-20T12:23:35.774Z,28.50
2019-05-20T12:26:10.657Z,28.20
2019-05-20T12:28:46.021Z,28.30
2019-05-20T12:31:21.051Z,28.10
2019-05-20T12:33:56.222Z,28.20
2019-05-20T12:36:31.559Z,28.40
2019-05-20T12:39:08.061Z,28.10
2019-05-20T12:42:02.770Z,28.40
2019-05-20T12:44:37.241Z,28.10
2019-05-20T12:47:12.225Z,28.70
2019-05-20T12:49:46.736Z,28.60
2019-05-20T12:52:21.613Z,28.70
2019-05-20T12:55:07.132Z,28.90
2019-05-20T12:57:33.302Z,28.50
2019-05-20T13:00:13.099Z,28.30
2019-05-20T13:02:48.057Z,28.70
2019-05-20T13:05:40.729Z,28.80
2019-05-20T13:08:18.796Z,28.70
2019-05-20T13:10:53.428Z,28.80
2019-05-20T13:13:28.494Z,29.00
2019-05-20T13:16:03.545Z,28.70
2019-05-20T13:18:54.672Z,28.70
2019-05-20T13:21:14.538Z,28.60
2019-05-20T13:23:49.381Z,29.10
2019-05-20T13:26:24.401Z,29.00
2019-05-20T13:28:59.923Z,28.90
2019-05-20T13:31:34.777Z,28.90
2019-05-20T13:34:09.248Z,28.70
2019-05-20T13:36:44.943Z,28.50
2019-05-20T13:42:04.786Z,28.90
2019-05-20T13:44:39.522Z,29.00
2019-05-20T13:47:13.872Z,29.10
2019-05-20T13:49:48.583Z,29.40
2019-05-20T13:52:23.269Z,29.50
2019-05-20T13:54:57.696Z,29.40
2019-05-20T13:57:33.817Z,29.50
2019-05-20T14:00:12.187Z,29.10
2019-05-20T14:02:47.331Z,29.50
2019-05-20T14:05:22.073Z,29.50
2019-05-20T14:07:56.750Z,29.60
2019-05-20T14:10:31.291Z,29.40
2019-05-20T14:13:06.833Z,29.80
2019-05-20T14:15:41.808Z,29.80
2019-05-20T14:18:16.403Z,29.60
2019-05-20T14:20:52.280Z,29.90
2019-05-20T14:23:27.246Z,29.90
2019-05-20T14:26:02.384Z,29.90
2019-05-20T14:28:39.561Z,29.90
2019-05-20T14:31:32.629Z,30.10
2019-05-20T14:34:10.183Z,30.00
2019-05-20T14:36:45.332Z,29.90
2019-05-20T14:39:21.205Z,30.00
2019-05-20T14:42:06.344Z,29.70
2019-05-20T14:44:40.794Z,29.90
2019-05-20T14:47:22.250Z,30.20
2019-05-20T14:49:57.500Z,30.30
2019-05-20T14:52:34.704Z,30.60
2019-05-20T14:55:11.072Z,30.10
2019-05-20T14:57:47.115Z,30.00
2019-05-20T15:00:22.266Z,29.80
2019-05-20T15:03:09.131Z,30.20
2019-05-20T15:05:46.277Z,30.20
2019-05-20T15:08:23.261Z,29.60
2019-05-20T15:11:02.726Z,29.90
2019-05-20T15:13:40.762Z,30.10
2019-05-20T15:16:15.890Z,30.40
2019-05-20T15:18:51.622Z,30.00
2019-05-20T15:21:29.804Z,30.10
2019-05-20T15:24:04.484Z,31.00
2019-05-20T15:26:39.370Z,30.40
2019-05-20T15:29:27.704Z,30.00
2019-05-20T15:31:51.904Z,30.00
2019-05-20T15:34:26.749Z,30.20
2019-05-20T15:37:02.211Z,30.60
2019-05-20T15:39:37.095Z,31.00
2019-05-20T15:42:20.776Z,31.00
2019-05-20T15:45:00.898Z,30.80
2019-05-20T15:47:39.434Z,31.00
2019-05-20T15:50:14.704Z,30.50
2019-05-20T15:52:50.762Z,31.20
2019-05-20T15:55:32.301Z,31.40
2019-05-20T15:58:17.636Z,31.30
2019-05-20T16:00:52.721Z,30.90
2019-05-20T16:03:27.921Z,31.00
2019-05-20T16:06:06.159Z,31.70
2019-05-20T16:08:49.004Z,31.50
2019-05-20T16:11:35.675Z,31.80
2019-05-20T16:14:11.604Z,31.40
2019-05-20T16:16:46.810Z,31.80
2019-05-20T16:19:23.587Z,32.00
2019-05-20T16:21:58.492Z,32.30
2019-05-20T16:24:34.530Z,32.50
2019-05-20T16:27:10.688Z,32.60
2019-05-20T16:30:00.608Z,32.80
2019-05-20T16:32:22.955Z,32.90
2019-05-20T16:34:58.020Z,32.70
2019-05-20T16:37:32.459Z,32.50
2019-05-20T16:40:09.081Z,32.60
2019-05-20T16:42:46.129Z,32.90
2019-05-20T16:45:23.473Z,33.40
2019-05-20T16:48:07.916Z,33.10
2019-05-20T16:50:46.131Z,33.10
2019-05-20T16:53:22.167Z,33.00
2019-05-20T16:55:59.998Z,33.40
2019-05-20T16:58:36.028Z,34.20
2019-05-20T17:01:12.464Z,33.50
2019-05-20T17:03:51.040Z,33.00
2019-05-20T17:06:28.310Z,32.90
2019-05-20T17:09:03.231Z,32.90
2019-05-20T17:11:39.638Z,32.70
2019-05-20T17:14:14.535Z,32.50
2019-05-20T17:16:50.492Z,32.30
2019-05-20T17:19:28.569Z,32.00
2019-05-20T17:22:03.661Z,32.20
2019-05-20T17:24:38.464Z,32.00
2019-05-20T17:27:13.825Z,32.00
2019-05-20T17:29:51.397Z,32.00
2019-05-20T17:32:26.074Z,32.20
2019-05-20T17:35:01.923Z,31.90
2019-05-20T17:37:36.713Z,32.20
2019-05-20T17:40:11.927Z,32.20
2019-05-20T17:42:46.739Z,32.60
2019-05-20T17:45:24.386Z,32.40
2019-05-20T17:47:59.603Z,32.50
2019-05-20T17:50:34.687Z,32.30
2019-05-20T17:53:09.989Z,32.20
2019-05-20T17:55:46.350Z,32.40
2019-05-20T17:58:21.191Z,32.80
2019-05-20T18:00:56.488Z,32.80
2019-05-20T18:03:31.348Z,33.00
2019-05-20T18:06:05.793Z,33.10
2019-05-20T18:08:41.726Z,33.10
2019-05-20T18:11:29.029Z,33.40
2019-05-20T18:14:03.627Z,33.80
2019-05-20T18:16:38.139Z,33.30
2019-05-20T18:19:13.184Z,33.40
2019-05-20T18:21:48.269Z,33.00
2019-05-20T18:24:23.019Z,33.00
2019-05-20T18:26:57.680Z,32.90
2019-05-20T18:29:32.064Z,32.80
2019-05-20T18:32:06.696Z,33.20
2019-05-20T18:34:41.089Z,33.30
2019-05-20T18:37:15.449Z,33.50
2019-05-20T18:39:49.811Z,33.40
2019-05-20T18:42:24.143Z,33.50
2019-05-20T18:44:58.462Z,33.40
2019-05-20T18:47:33.172Z,33.40
2019-05-20T18:50:09.599Z,33.50
2019-05-20T18:52:44.035Z,33.40
2019-05-20T18:55:18.399Z,33.30
2019-05-20T18:57:52.651Z,33.50
2019-05-20T19:00:27.247Z,33.60
2019-05-20T19:03:02.637Z,33.70
2019-05-20T19:05:37.042Z,33.70
2019-05-20T19:08:11.850Z,33.80
2019-05-20T19:10:46.139Z,33.90
2019-05-20T19:13:20.564Z,33.80
2019-05-20T19:15:54.942Z,33.90
2019-05-20T19:18:29.200Z,33.90
2019-05-20T19:21:03.614Z,33.90
2019-05-20T19:23:37.962Z,33.90
2019-05-20T19:26:23.991Z,34.00
2019-05-20T19:28:47.943Z,34.10
2019-05-20T19:31:22.388Z,34.10
2019-05-20T19:33:56.791Z,34.00
2019-05-20T19:36:32.314Z,34.00
2019-05-20T19:39:07.720Z,34.10
2019-05-20T19:41:43.175Z,34.20
2019-05-20T19:44:17.561Z,34.30
2019-05-20T19:46:51.903Z,34.30
2019-05-20T19:49:26.272Z,34.30
2019-05-20T19:52:00.765Z,34.30
2019-05-20T19:54:35.028Z,34.30
2019-05-20T19:57:09.415Z,34.40
2019-05-20T19:59:43.703Z,34.90
2019-05-20T20:02:19.098Z,34.40
2019-05-20T20:04:53.834Z,34.60
2019-05-20T20:07:28.877Z,34.60
2019-05-20T20:10:03.342Z,34.70
2019-05-20T20:12:37.717Z,34.70
2019-05-20T20:15:13.045Z,34.70
2019-05-20T20:17:47.458Z,34.70
2019-05-20T20:20:22.169Z,34.80
2019-05-20T20:22:56.448Z,35.00
2019-05-20T20:25:30.793Z,35.00
2019-05-20T20:28:05.084Z,35.00
2019-05-20T20:30:40.563Z,35.00
2019-05-20T20:33:14.803Z,35.10
2019-05-20T20:35:49.326Z,35.20
2019-05-20T20:38:23.756Z,35.10
2019-05-20T20:40:59.351Z,35.00
2019-05-20T20:43:33.859Z,35.10
2019-05-20T20:46:10.548Z,35.20
2019-05-20T20:48:43.788Z,35.20
2019-05-20T20:51:18.110Z,35.20
2019-05-20T20:53:52.539Z,35.30
2019-05-20T20:56:26.893Z,35.30
2019-05-20T20:59:01.249Z,35.40
2019-05-20T21:01:35.636Z,35.50
2019-05-20T21:04:09.942Z,35.50
2019-05-20T21:06:44.239Z,35.60
2019-05-20T21:09:18.586Z,35.70
2019-05-20T21:11:52.891Z,35.70
2019-05-20T21:14:27.156Z,35.70
2019-05-20T21:17:02.683Z,35.60
2019-05-20T21:19:37.064Z,35.80
2019-05-20T21:22:11.359Z,35.90
2019-05-20T21:24:45.683Z,36.40
2019-05-20T21:27:19.967Z,35.90
2019-05-20T21:29:54.472Z,36.40
2019-05-20T21:32:28.815Z,35.80
2019-05-20T21:35:03.601Z,36.00
2019-05-20T21:37:37.930Z,36.00
2019-05-20T21:40:13.402Z,36.20
2019-05-20T21:42:47.621Z,36.10
2019-05-20T21:45:22.122Z,36.10
2019-05-20T21:47:56.550Z,36.20
2019-05-20T21:50:30.924Z,36.20
2019-05-20T21:53:05.276Z,36.20
2019-05-20T21:55:39.610Z,36.30
2019-05-20T21:58:13.972Z,36.20
2019-05-20T22:00:52.457Z,36.20
2019-05-20T22:03:26.912Z,36.30
2019-05-20T22:06:01.210Z,36.20
2019-05-20T22:08:35.522Z,36.50
2019-05-20T22:11:09.902Z,36.60
2019-05-20T22:13:44.159Z,36.70
2019-05-20T22:16:18.522Z,36.80
2019-05-20T22:18:53.358Z,36.80
2019-05-20T22:21:29.202Z,36.90
2019-05-20T22:24:16.019Z,36.80
2019-05-20T22:26:50.459Z,36.90
2019-05-20T22:29:25.135Z,36.80
2019-05-20T22:31:59.569Z,36.80
2019-05-20T22:34:33.792Z,36.80
2019-05-20T22:37:08.084Z,37.00
2019-05-20T22:39:42.339Z,37.00
2019-05-20T22:42:16.606Z,37.00
2019-05-20T22:44:51.252Z,37.00
2019-05-20T22:47:25.656Z,37.10
2019-05-20T22:49:59.873Z,37.20
2019-05-20T22:52:34.116Z,37.20
2019-05-20T22:55:08.892Z,37.20
2019-05-20T22:57:43.545Z,37.10
2019-05-20T23:00:20.980Z,37.30
2019-05-20T23:02:55.309Z,37.30
2019-05-20T23:05:29.773Z,37.40
2019-05-20T23:08:03.968Z,37.50
2019-05-20T23:10:38.254Z,37.50
2019-05-20T23:13:12.840Z,37.50
2019-05-20T23:15:47.151Z,37.50
2019-05-20T23:18:22.787Z,37.60
2019-05-20T23:20:57.258Z,37.80
2019-05-20T23:23:31.879Z,37.90
2019-05-20T23:26:06.363Z,38.00
2019-05-20T23:28:41.644Z,38.20
2019-05-20T23:31:16.903Z,38.20
2019-05-20T23:33:51.358Z,38.30
2019-05-20T23:36:25.803Z,38.20
2019-05-20T23:39:00.286Z,38.20
2019-05-20T23:41:35.836Z,38.40
2019-05-20T23:44:10.235Z,38.60
2019-05-20T23:46:44.693Z,38.80
2019-05-20T23:49:19.164Z,38.90
2019-05-20T23:51:53.851Z,39.10
2019-05-20T23:54:28.296Z,39.20
2019-05-20T23:57:02.585Z,39.30
2019-05-20T23:59:37.755Z,39.70
